Valley Peak, Santa Cruz Island Reserve, California Weather observations

Data are for 10 minute period ending at time listed.
 Day   Time   Solar   Ave.   Ave.  Ave.  Vector  Max.   Baro.   Total    
  of    of     Rad.   Air    Rel.  Wind   Wind   Wind  Press.  Precip.   
Year   Day            Temp.  Hum.  Speed  Dir.   Gust                    
2014   (PST)  Kw/m2    F      %     mph   deg.    mph    mb.     in.     
-------------------------------------------------------------------------
 273    0:00   0.00   71.1    39   10.7   353    12.1   962.6    0.00 
 273    0:10   0.00   72.2    35   11.3   349    12.6   962.7    0.00 
 273    0:20   0.00   71.4    38   10.3     3    12.4   962.7    0.00 
 273    0:30   0.00   69.3    46    9.1    17    10.3   962.7    0.00 
 273    0:40   0.00   68.9    47    9.8     7    12.9   962.9    0.00 
 273    0:50   0.00   69.4    44   11.1     9    14.4   962.9    0.00 
 273    1:00   0.00   68.6    48   11.1    14    14.1   962.9    0.00 
 273    1:10   0.00   69.2    44   11.5     4    15.1   962.8    0.00 
 273    1:20   0.00   70.2    39   11.5   347    14.8   962.8    0.00 
 273    1:30   0.00   70.6    37   12.6   346    16.3   962.7    0.00 
 273    1:40   0.00   70.6    36   12.8   346    15.8   962.6    0.00 
 273    1:50   0.00   71.0    33   13.7   350    16.1   962.5    0.00 
 273    2:00   0.00   71.2    32   14.1   352    16.8   962.3    0.00 
 273    2:10   0.00   71.6    30   13.1   353    15.1   962.2    0.00 
 273    2:20   0.00   72.4    29   12.8   355    14.2   962.1    0.00 
 273    2:30   0.00   72.4    29   11.3   359    12.9   962.1    0.00 
 273    2:40   0.00   71.7    30   10.7     6    13.2   962.0    0.00 
 273    2:50   0.00   71.3    31   10.8     4    12.6   961.9    0.00 
 273    3:00   0.00   71.4    32   10.9     1    12.5   961.9    0.00 
 273    3:10   0.00   71.0    32   10.2     8    12.1   961.9    0.00 
 273    3:20   0.00   70.9    33   10.1     7    12.2   961.9    0.00 
 273    3:30   0.00   70.8    34    9.3     6    10.8   961.9    0.00 
 273    3:40   0.00   70.9    34    7.6     1     8.7   961.8    0.00 
 273    3:50   0.00   71.3    34    7.1   356     8.3   961.8    0.00 
 273    4:00   0.00   72.1    33    7.8   348     8.7   961.8    0.00 
 273    4:10   0.00   71.8    33    6.5   358     7.9   961.8    0.00 
 273    4:20   0.00   72.1    33    4.6   343     5.3   961.9    0.00 
 273    4:30   0.00   72.4    32    3.5   337     4.1   961.9    0.00 
 273    4:40   0.00   72.4    32    4.0   344     4.8   961.9    0.00 
 273    4:50   0.00   72.2    32    3.6   345     4.5   961.9    0.00 
 273    5:00   0.00   71.9    32    2.1   337     2.7   961.9    0.00 
 273    5:10   0.00   71.5    32    2.7   175     4.7   962.0    0.00 
 273    5:20   0.00   69.7    36    5.2   163     6.6   962.0    0.00 
 273    5:30   0.00   68.8    41    5.5   173     6.7   962.0    0.00 
 273    5:40   0.00   69.1    40    5.7   182     6.5   962.1    0.00 
 273    5:50   0.00   69.6    39    3.7   181     5.3   962.1    0.00 
 273    6:00   0.00   69.8    38    4.5   183     5.3   962.2    0.00 
 273    6:10   0.02   68.9    42    3.9   159     5.3   962.3    0.00 
 273    6:20   0.05   68.4    41    4.5   158     6.1   962.3    0.00 
 273    6:30   0.08   67.9    47    5.2   148     6.4   962.3    0.00 
 273    6:40   0.11   67.7    46    5.6   142     6.9   962.3    0.00 
 273    6:50   0.15   67.9    49    5.4   138     7.0   962.3    0.00 
 273    7:00   0.18   68.3    50    4.4   143     6.1   962.4    0.00 
 273    7:10   0.21   68.7    50    4.5   138     5.8   962.3    0.00 
 273    7:20   0.25   69.3    49    3.8   131     6.0   962.4    0.00 
 273    7:30   0.28   70.2    44    2.2    67     4.2   962.5    0.00 
 273    7:40   0.32   70.3    45    1.7    46     4.2   962.6    0.00 
 273    7:50   0.35   70.1    50    0.5    63     1.9   962.6    0.00 
 273    8:00   0.39   70.6    54    1.3   184     3.1   962.7    0.00 
 273    8:10   0.42   70.4    56    0.8   228     2.5   962.7    0.00 
 273    8:20   0.45   70.5    57    1.3   231     3.5   962.7    0.00 
 273    8:30   0.48   71.4    55    1.8   183     5.0   962.6    0.00 
 273    8:40   0.51   73.3    51    1.5    64     4.5   962.7    0.00 
 273    8:50   0.54   74.4    51    2.4   163     5.6   962.6    0.00 
 273    9:00   0.57   73.9    51    2.2   201     5.4   962.7    0.00 
 273    9:10   0.59   74.1    50    2.5   183     4.5   962.6    0.00 
 273    9:20   0.62   74.8    48    2.9   192     5.3   962.6    0.00 
 273    9:30   0.65   75.2    41    2.8   206     5.0   962.6    0.00 
 273    9:40   0.67   77.8    37    1.8   161     5.7   962.7    0.00 
 273    9:50   0.69   79.4    43    4.2    62     6.6   962.8    0.00 
 273   10:00   0.70   81.2    41    5.2    46     9.0   962.9    0.00 
 273   10:10   0.72   78.3    43    6.8    40     9.7   963.0    0.00 
 273   10:20   0.74   77.0    42    5.5    43     8.8   962.9    0.00 
 273   10:30   0.76   78.5    39    2.7    53     5.9   962.8    0.00 
 273   10:40   0.77   80.7    40    2.9   110     7.0   962.8    0.00 
 273   10:50   0.78   80.7    42    3.1   160     7.6   962.8    0.00 
 273   11:00   0.79   81.1    43    3.1   155     8.0   962.7    0.00 
 273   11:10   0.80   80.8    45    4.2   151     8.0   962.7    0.00 
 273   11:20   0.80   80.3    44    3.4   169     6.9   962.5    0.00 
 273   11:30   0.80   82.1    42    2.8    76     6.5   962.4    0.00 
 273   11:40   0.81   83.2    35    4.7    44     7.8   962.3    0.00 
 273   11:50   0.81   81.5    36    5.2    44     8.3   962.3    0.00 
 273   12:00   0.81   82.5    38    2.1    73     4.9   962.2    0.00 
 273   12:10   0.80   85.1    36    3.6    66     6.7   962.3    0.00 
 273   12:20   0.80   85.1    40    3.2    98     7.2   962.1    0.00 
 273   12:30   0.79   83.0    45    3.2    99     6.6   962.1    0.00 
 273   12:40   0.78   82.7    41    3.2    52     5.9   961.9    0.00 
 273   12:50   0.77   83.2    39    4.1    44     7.7   961.8    0.00 
 273   13:00   0.76   80.9    42    6.1    41     9.1   961.7    0.00 
 273   13:10   0.74   78.5    46    7.5    36    11.0   961.6    0.00 
 273   13:20   0.73   75.6    48    8.8    33    13.2   961.4    0.00 
 273   13:30   0.71   73.0    50   10.3    30    12.9   961.2    0.00 
 273   13:40   0.69   72.2    51    9.6    31    13.3   961.0    0.00 
 273   13:50   0.67   73.1    49    8.5    29    11.5   960.7    0.00 
 273   14:00   0.64   73.8    45    7.8    27    10.2   960.6    0.00 
 273   14:10   0.62   75.0    41    7.9    30    11.2   960.6    0.00 
 273   14:20   0.60   75.9    40    6.3    32    10.2   960.6    0.00 
 273   14:30   0.57   76.6    38    6.0    24     8.5   960.5    0.00 
 273   14:40   0.54   76.6    41    6.1    29     8.5   960.4    0.00 
 273   14:50   0.52   77.6    42    4.3    14     6.6   960.4    0.00 
 273   15:00   0.49   79.8    40    2.4    21     4.5   960.3    0.00 
 273   15:10   0.46   80.6    40    2.6    16     5.1   960.3    0.00 
 273   15:20   0.42   81.0    42    2.4    41     3.9   960.2    0.00 
 273   15:30   0.39   83.2    40    1.9    74     3.0   960.1    0.00 
 273   15:40   0.36   84.2    39    2.8    37     4.9   960.1    0.00 
 273   15:50   0.33   80.4    44    3.6    27     4.6   960.1    0.00 
 273   16:00   0.29   76.6    46    2.9     9     4.6   960.0    0.00 
 273   16:10   0.26   76.5    45    2.1   333     4.1   959.9    0.00 
 273   16:20   0.22   77.0    46    2.9    20     6.6   959.8    0.00 
 273   16:30   0.19   75.1    50    3.7   351     6.6   959.6    0.00 
 273   16:40   0.16   74.6    49    3.0   334     4.5   959.4    0.00 
 273   16:50   0.13   77.2    46    3.6   225     5.6   959.3    0.00 
 273   17:00   0.10   78.1    44    2.2    48     4.5   959.4    0.00 
 273   17:10   0.07   78.8    44    1.5   332     2.6   959.4    0.00 
 273   17:20   0.04   73.7    51    5.3   355     8.8   959.3    0.00 
 273   17:30   0.02   71.2    51    6.9   325    10.8   959.1    0.00 
 273   17:40   0.00   69.3    57    7.2     6     9.8   959.0    0.00 
 273   17:50   0.00   67.9    56    5.2   329     7.4   958.9    0.00 
 273   18:00   0.00   68.3    54    6.0   341     9.1   959.0    0.00 
 273   18:10   0.00   67.9    53    8.2   339    13.6   959.0    0.00 
 273   18:20   0.00   68.1    52    5.9   329     9.6   959.1    0.00 
 273   18:30   0.00   67.0    54    8.1   347    11.8   959.1    0.00 
 273   18:40   0.00   67.9    51    9.4   332    15.0   959.1    0.00 
 273   18:50   0.00   68.3    49    9.4   345    15.9   959.1    0.00 
 273   19:00   0.00   68.0    49   11.8   354    16.7   959.0    0.00 
 273   19:10   0.00   67.7    49   11.0   357    16.1   959.0    0.00 
 273   19:20   0.00   67.5    49    9.6     4    14.4   959.0    0.00 
 273   19:30   0.00   68.0    47   11.8   355    17.9   959.0    0.00 
 273   19:40   0.00   67.6    48   10.6   345    17.6   959.1    0.00 
 273   19:50   0.00   66.9    52   11.4     1    19.4   959.1    0.00 
 273   20:00   0.00   66.6    52   14.9     3    19.6   959.0    0.00 
 273   20:10   0.00   65.9    52   13.9     7    21.2   959.1    0.00 
 273   20:20   0.00   66.6    50   14.9     0    20.5   959.1    0.00 
 273   20:30   0.00   66.1    51   14.5     2    18.3   959.0    0.00 
 273   20:40   0.00   65.3    54   16.7     4    22.0   958.9    0.00 
 273   20:50   0.00   66.8    50   17.7   351    23.2   958.9    0.00 
 273   21:00   0.00   67.9    47   14.8   352    18.5   958.9    0.00 
 273   21:10   0.00   67.8    48   10.1     6    15.2   959.0    0.00 
 273   21:20   0.00   66.5    50    9.6   360    11.8   959.0    0.00 
 273   21:30   0.00   67.0    49   11.9   349    15.1   958.9    0.00 
 273   21:40   0.00   67.3    48    8.9   340    11.2   958.9    0.00 
 273   21:50   0.00   66.2    53    5.6   351     9.4   959.0    0.00 
 273   22:00   0.00   66.3    51    8.7   335    13.4   959.0    0.00 
 273   22:10   0.00   67.5    47    8.8   316    13.4   959.0    0.00 
 273   22:20   0.00   67.5    48    6.1   308     9.1   959.0    0.00 
 273   22:30   0.00   67.3    49    6.5   318     8.8   959.0    0.00 
 273   22:40   0.00   67.2    50    6.6   315     8.3   958.9    0.00 
 273   22:50   0.00   67.4    50    5.3   295     6.6   958.9    0.00 
 273   23:00   0.00   68.1    48    3.5   278     5.0   958.8    0.00 
 273   23:10   0.00   68.5    47    1.9   247     3.1   958.9    0.00 
 273   23:20   0.00   67.2    50    2.7    27     3.7   958.8    0.00 
 273   23:30   0.00   65.1    57    3.3    36     4.3   958.8    0.00 
 273   23:40   0.00   65.1    54    1.3   301     2.3   958.8    0.00 
 273   23:50   0.00   66.4    51    1.9   271     4.1   958.8    0.00 

Return to Valley Peak, Santa Cruz Island Reserve graphs page.


Western Regional Climate Center,wrcc@dri.edu